sensor_id;sensor_type;location;lat;lon;timestamp;P1;durP1;ratioP1;P2;durP2;ratioP2
63536;SDS011;49686;51.880;5.632;2024-03-25T00:01:44;10.43;;;2.30;;
63536;SDS011;49686;51.880;5.632;2024-03-25T00:04:11;11.25;;;2.55;;
63536;SDS011;49686;51.880;5.632;2024-03-25T00:06:37;12.00;;;2.33;;
63536;SDS011;49686;51.880;5.632;2024-03-25T00:09:04;11.13;;;2.30;;
63536;SDS011;49686;51.880;5.632;2024-03-25T00:11:32;11.60;;;2.47;;
63536;SDS011;49686;51.880;5.632;2024-03-25T00:13:59;9.80;;;3.33;;
63536;SDS011;49686;51.880;5.632;2024-03-25T00:16:25;11.13;;;3.55;;
63536;SDS011;49686;51.880;5.632;2024-03-25T00:18:52;9.82;;;2.38;;
63536;SDS011;49686;51.880;5.632;2024-03-25T00:21:18;10.63;;;2.50;;
63536;SDS011;49686;51.880;5.632;2024-03-25T00:23:45;20.83;;;3.13;;
63536;SDS011;49686;51.880;5.632;2024-03-25T00:26:11;8.50;;;2.50;;
63536;SDS011;49686;51.880;5.632;2024-03-25T00:28:38;20.30;;;4.10;;
63536;SDS011;49686;51.880;5.632;2024-03-25T00:31:04;18.73;;;2.97;;
63536;SDS011;49686;51.880;5.632;2024-03-25T00:33:31;18.80;;;3.10;;
63536;SDS011;49686;51.880;5.632;2024-03-25T00:35:58;14.82;;;2.92;;
63536;SDS011;49686;51.880;5.632;2024-03-25T00:38:25;13.77;;;3.10;;
63536;SDS011;49686;51.880;5.632;2024-03-25T00:40:51;22.02;;;3.17;;
63536;SDS011;49686;51.880;5.632;2024-03-25T00:43:18;13.40;;;3.10;;
63536;SDS011;49686;51.880;5.632;2024-03-25T00:45:45;17.45;;;2.70;;
63536;SDS011;49686;51.880;5.632;2024-03-25T00:48:12;15.27;;;2.78;;
63536;SDS011;49686;51.880;5.632;2024-03-25T00:50:38;11.70;;;2.70;;
63536;SDS011;49686;51.880;5.632;2024-03-25T00:53:05;16.55;;;2.53;;
63536;SDS011;49686;51.880;5.632;2024-03-25T00:55:33;13.05;;;2.60;;
63536;SDS011;49686;51.880;5.632;2024-03-25T00:58:01;18.35;;;3.22;;
63536;SDS011;49686;51.880;5.632;2024-03-25T01:00:28;13.07;;;2.78;;
63536;SDS011;49686;51.880;5.632;2024-03-25T01:02:55;14.77;;;3.70;;
63536;SDS011;49686;51.880;5.632;2024-03-25T01:05:20;14.35;;;2.92;;
63536;SDS011;49686;51.880;5.632;2024-03-25T01:07:47;14.93;;;2.80;;
63536;SDS011;49686;51.880;5.632;2024-03-25T01:10:14;24.08;;;3.55;;
63536;SDS011;49686;51.880;5.632;2024-03-25T01:12:42;13.23;;;2.83;;
63536;SDS011;49686;51.880;5.632;2024-03-25T01:15:08;19.42;;;2.95;;
63536;SDS011;49686;51.880;5.632;2024-03-25T01:17:36;14.93;;;3.07;;
63536;SDS011;49686;51.880;5.632;2024-03-25T01:20:02;19.73;;;2.80;;
63536;SDS011;49686;51.880;5.632;2024-03-25T01:22:30;14.70;;;3.42;;
63536;SDS011;49686;51.880;5.632;2024-03-25T01:24:56;28.15;;;3.88;;
63536;SDS011;49686;51.880;5.632;2024-03-25T01:27:23;14.80;;;2.45;;
63536;SDS011;49686;51.880;5.632;2024-03-25T01:29:49;8.90;;;2.72;;
63536;SDS011;49686;51.880;5.632;2024-03-25T01:32:16;15.23;;;3.10;;
63536;SDS011;49686;51.880;5.632;2024-03-25T01:34:42;16.33;;;2.88;;
63536;SDS011;49686;51.880;5.632;2024-03-25T01:37:09;15.77;;;2.88;;
63536;SDS011;49686;51.880;5.632;2024-03-25T01:39:35;12.52;;;2.45;;
63536;SDS011;49686;51.880;5.632;2024-03-25T01:42:02;11.00;;;2.65;;
63536;SDS011;49686;51.880;5.632;2024-03-25T01:44:28;22.33;;;3.25;;
63536;SDS011;49686;51.880;5.632;2024-03-25T01:46:55;12.88;;;2.30;;
63536;SDS011;49686;51.880;5.632;2024-03-25T01:49:21;18.85;;;3.05;;
63536;SDS011;49686;51.880;5.632;2024-03-25T01:51:48;10.30;;;2.55;;
63536;SDS011;49686;51.880;5.632;2024-03-25T01:54:14;12.80;;;2.67;;
63536;SDS011;49686;51.880;5.632;2024-03-25T01:56:42;17.75;;;2.85;;
63536;SDS011;49686;51.880;5.632;2024-03-25T01:59:12;11.15;;;2.03;;
63536;SDS011;49686;51.880;5.632;2024-03-25T02:01:41;16.42;;;3.50;;
63536;SDS011;49686;51.880;5.632;2024-03-25T02:04:07;15.13;;;3.13;;
63536;SDS011;49686;51.880;5.632;2024-03-25T02:06:34;18.58;;;3.03;;
63536;SDS011;49686;51.880;5.632;2024-03-25T02:09:02;15.55;;;4.10;;
63536;SDS011;49686;51.880;5.632;2024-03-25T02:11:30;20.35;;;3.72;;
63536;SDS011;49686;51.880;5.632;2024-03-25T02:13:56;14.48;;;2.90;;
63536;SDS011;49686;51.880;5.632;2024-03-25T02:16:23;13.88;;;2.95;;
63536;SDS011;49686;51.880;5.632;2024-03-25T02:18:50;13.93;;;3.78;;
63536;SDS011;49686;51.880;5.632;2024-03-25T02:21:17;15.10;;;2.57;;
63536;SDS011;49686;51.880;5.632;2024-03-25T02:23:43;12.50;;;2.55;;
63536;SDS011;49686;51.880;5.632;2024-03-25T02:26:13;16.42;;;2.83;;
63536;SDS011;49686;51.880;5.632;2024-03-25T02:28:39;19.15;;;3.10;;
63536;SDS011;49686;51.880;5.632;2024-03-25T02:31:06;12.02;;;3.83;;
63536;SDS011;49686;51.880;5.632;2024-03-25T02:33:32;18.23;;;3.03;;
63536;SDS011;49686;51.880;5.632;2024-03-25T02:35:58;25.42;;;3.72;;
63536;SDS011;49686;51.880;5.632;2024-03-25T02:38:24;21.30;;;3.50;;
63536;SDS011;49686;51.880;5.632;2024-03-25T02:40:51;18.00;;;3.33;;
63536;SDS011;49686;51.880;5.632;2024-03-25T02:43:17;14.70;;;3.63;;
63536;SDS011;49686;51.880;5.632;2024-03-25T02:45:46;23.83;;;3.72;;
63536;SDS011;49686;51.880;5.632;2024-03-25T02:48:12;15.85;;;2.95;;
63536;SDS011;49686;51.880;5.632;2024-03-25T02:50:39;14.95;;;2.80;;
63536;SDS011;49686;51.880;5.632;2024-03-25T02:53:05;18.77;;;3.42;;
63536;SDS011;49686;51.880;5.632;2024-03-25T02:55:32;19.77;;;3.08;;
63536;SDS011;49686;51.880;5.632;2024-03-25T02:57:58;17.17;;;3.40;;
63536;SDS011;49686;51.880;5.632;2024-03-25T03:00:25;18.55;;;3.60;;
63536;SDS011;49686;51.880;5.632;2024-03-25T03:02:50;12.90;;;2.90;;
63536;SDS011;49686;51.880;5.632;2024-03-25T03:05:17;18.20;;;3.50;;
63536;SDS011;49686;51.880;5.632;2024-03-25T03:07:44;13.93;;;3.53;;
63536;SDS011;49686;51.880;5.632;2024-03-25T03:10:10;27.23;;;4.60;;
63536;SDS011;49686;51.880;5.632;2024-03-25T03:12:36;19.52;;;4.18;;
63536;SDS011;49686;51.880;5.632;2024-03-25T03:15:03;14.98;;;3.50;;
63536;SDS011;49686;51.880;5.632;2024-03-25T03:17:30;17.17;;;3.70;;
63536;SDS011;49686;51.880;5.632;2024-03-25T03:19:56;14.27;;;3.72;;
63536;SDS011;49686;51.880;5.632;2024-03-25T03:22:22;16.92;;;3.38;;
63536;SDS011;49686;51.880;5.632;2024-03-25T03:24:49;15.73;;;3.55;;
63536;SDS011;49686;51.880;5.632;2024-03-25T03:27:15;21.05;;;3.70;;
63536;SDS011;49686;51.880;5.632;2024-03-25T03:29:42;14.45;;;3.50;;
63536;SDS011;49686;51.880;5.632;2024-03-25T03:32:08;14.05;;;3.60;;
63536;SDS011;49686;51.880;5.632;2024-03-25T03:34:35;14.43;;;2.97;;
63536;SDS011;49686;51.880;5.632;2024-03-25T03:37:00;14.98;;;3.70;;
63536;SDS011;49686;51.880;5.632;2024-03-25T03:39:27;12.82;;;3.53;;
63536;SDS011;49686;51.880;5.632;2024-03-25T03:41:53;19.52;;;4.03;;
63536;SDS011;49686;51.880;5.632;2024-03-25T03:44:20;15.15;;;3.70;;
63536;SDS011;49686;51.880;5.632;2024-03-25T03:46:46;17.85;;;3.78;;
63536;SDS011;49686;51.880;5.632;2024-03-25T03:49:13;18.17;;;4.10;;
63536;SDS011;49686;51.880;5.632;2024-03-25T03:51:39;20.33;;;3.80;;
63536;SDS011;49686;51.880;5.632;2024-03-25T03:54:05;17.02;;;4.00;;
63536;SDS011;49686;51.880;5.632;2024-03-25T03:56:31;14.02;;;4.07;;
63536;SDS011;49686;51.880;5.632;2024-03-25T03:58:58;13.43;;;3.35;;
63536;SDS011;49686;51.880;5.632;2024-03-25T04:01:24;14.85;;;4.00;;
63536;SDS011;49686;51.880;5.632;2024-03-25T04:03:51;13.15;;;3.50;;
63536;SDS011;49686;51.880;5.632;2024-03-25T04:06:17;17.85;;;3.60;;
63536;SDS011;49686;51.880;5.632;2024-03-25T04:08:44;18.20;;;4.68;;
63536;SDS011;49686;51.880;5.632;2024-03-25T04:11:09;20.95;;;4.20;;
63536;SDS011;49686;51.880;5.632;2024-03-25T04:13:36;17.83;;;4.60;;
63536;SDS011;49686;51.880;5.632;2024-03-25T04:16:03;20.40;;;3.80;;
63536;SDS011;49686;51.880;5.632;2024-03-25T04:18:31;17.48;;;4.43;;
63536;SDS011;49686;51.880;5.632;2024-03-25T04:20:58;13.55;;;3.38;;
63536;SDS011;49686;51.880;5.632;2024-03-25T04:23:25;20.33;;;4.68;;
63536;SDS011;49686;51.880;5.632;2024-03-25T04:25:52;18.92;;;4.05;;
63536;SDS011;49686;51.880;5.632;2024-03-25T04:28:19;18.77;;;4.07;;
63536;SDS011;49686;51.880;5.632;2024-03-25T04:30:54;18.77;;;3.72;;
63536;SDS011;49686;51.880;5.632;2024-03-25T04:33:21;21.88;;;4.68;;
63536;SDS011;49686;51.880;5.632;2024-03-25T04:35:47;14.43;;;3.55;;
63536;SDS011;49686;51.880;5.632;2024-03-25T04:38:17;14.38;;;3.38;;
63536;SDS011;49686;51.880;5.632;2024-03-25T04:40:43;11.98;;;3.28;;
63536;SDS011;49686;51.880;5.632;2024-03-25T04:43:09;16.45;;;3.28;;
63536;SDS011;49686;51.880;5.632;2024-03-25T04:45:36;17.15;;;3.70;;
63536;SDS011;49686;51.880;5.632;2024-03-25T04:48:02;11.93;;;2.72;;
63536;SDS011;49686;51.880;5.632;2024-03-25T04:50:28;14.65;;;3.65;;
63536;SDS011;49686;51.880;5.632;2024-03-25T04:52:55;12.45;;;3.45;;
63536;SDS011;49686;51.880;5.632;2024-03-25T04:55:21;12.65;;;4.00;;
63536;SDS011;49686;51.880;5.632;2024-03-25T04:57:47;21.02;;;3.60;;
63536;SDS011;49686;51.880;5.632;2024-03-25T05:00:13;19.60;;;3.63;;
63536;SDS011;49686;51.880;5.632;2024-03-25T05:02:39;21.80;;;3.60;;
63536;SDS011;49686;51.880;5.632;2024-03-25T05:05:05;11.82;;;3.67;;
63536;SDS011;49686;51.880;5.632;2024-03-25T05:07:31;12.73;;;3.70;;
63536;SDS011;49686;51.880;5.632;2024-03-25T05:09:57;9.80;;;3.20;;
63536;SDS011;49686;51.880;5.632;2024-03-25T05:12:23;15.02;;;3.72;;
63536;SDS011;49686;51.880;5.632;2024-03-25T05:14:49;16.60;;;3.13;;
63536;SDS011;49686;51.880;5.632;2024-03-25T05:17:15;13.00;;;4.18;;
63536;SDS011;49686;51.880;5.632;2024-03-25T05:19:41;14.10;;;3.50;;
63536;SDS011;49686;51.880;5.632;2024-03-25T05:22:07;21.17;;;3.38;;
63536;SDS011;49686;51.880;5.632;2024-03-25T05:24:33;11.68;;;3.42;;
63536;SDS011;49686;51.880;5.632;2024-03-25T05:26:59;22.67;;;3.70;;
63536;SDS011;49686;51.880;5.632;2024-03-25T05:29:25;16.80;;;3.15;;
63536;SDS011;49686;51.880;5.632;2024-03-25T05:31:58;11.55;;;3.40;;
63536;SDS011;49686;51.880;5.632;2024-03-25T05:34:25;14.60;;;3.38;;
63536;SDS011;49686;51.880;5.632;2024-03-25T05:36:52;18.67;;;3.75;;
63536;SDS011;49686;51.880;5.632;2024-03-25T05:39:18;8.90;;;2.83;;
63536;SDS011;49686;51.880;5.632;2024-03-25T05:41:45;20.73;;;3.72;;
63536;SDS011;49686;51.880;5.632;2024-03-25T05:44:11;15.15;;;3.60;;
63536;SDS011;49686;51.880;5.632;2024-03-25T05:46:37;17.90;;;3.80;;
63536;SDS011;49686;51.880;5.632;2024-03-25T05:49:04;17.23;;;2.97;;
63536;SDS011;49686;51.880;5.632;2024-03-25T05:51:31;21.08;;;4.03;;
63536;SDS011;49686;51.880;5.632;2024-03-25T05:53:57;23.48;;;5.50;;
63536;SDS011;49686;51.880;5.632;2024-03-25T05:56:23;13.50;;;3.55;;
63536;SDS011;49686;51.880;5.632;2024-03-25T05:58:49;17.05;;;4.30;;
63536;SDS011;49686;51.880;5.632;2024-03-25T06:01:15;12.48;;;3.75;;
63536;SDS011;49686;51.880;5.632;2024-03-25T06:03:41;17.65;;;3.85;;
63536;SDS011;49686;51.880;5.632;2024-03-25T06:06:07;14.13;;;4.10;;
63536;SDS011;49686;51.880;5.632;2024-03-25T06:08:33;17.58;;;4.78;;
63536;SDS011;49686;51.880;5.632;2024-03-25T06:11:02;19.05;;;4.45;;
63536;SDS011;49686;51.880;5.632;2024-03-25T06:13:28;20.02;;;5.25;;
63536;SDS011;49686;51.880;5.632;2024-03-25T06:15:54;17.33;;;4.47;;
63536;SDS011;49686;51.880;5.632;2024-03-25T06:18:20;14.18;;;4.30;;
63536;SDS011;49686;51.880;5.632;2024-03-25T06:20:46;20.40;;;4.50;;
63536;SDS011;49686;51.880;5.632;2024-03-25T06:23:21;19.17;;;4.70;;
63536;SDS011;49686;51.880;5.632;2024-03-25T06:25:48;14.02;;;3.92;;
63536;SDS011;49686;51.880;5.632;2024-03-25T06:28:15;21.48;;;5.38;;
63536;SDS011;49686;51.880;5.632;2024-03-25T06:30:41;23.83;;;5.03;;
63536;SDS011;49686;51.880;5.632;2024-03-25T06:33:25;16.88;;;5.10;;
63536;SDS011;49686;51.880;5.632;2024-03-25T06:36:09;21.73;;;5.40;;
63536;SDS011;49686;51.880;5.632;2024-03-25T06:38:35;19.95;;;5.40;;
63536;SDS011;49686;51.880;5.632;2024-03-25T06:41:01;21.30;;;4.63;;
63536;SDS011;49686;51.880;5.632;2024-03-25T06:43:27;16.55;;;4.28;;
63536;SDS011;49686;51.880;5.632;2024-03-25T06:45:53;20.25;;;4.20;;
63536;SDS011;49686;51.880;5.632;2024-03-25T06:48:19;22.13;;;5.25;;
63536;SDS011;49686;51.880;5.632;2024-03-25T06:53:21;20.17;;;6.55;;
63536;SDS011;49686;51.880;5.632;2024-03-25T06:55:54;22.85;;;7.05;;
63536;SDS011;49686;51.880;5.632;2024-03-25T06:58:21;22.00;;;5.93;;
63536;SDS011;49686;51.880;5.632;2024-03-25T07:03:16;19.67;;;5.40;;
63536;SDS011;49686;51.880;5.632;2024-03-25T07:05:46;26.02;;;6.93;;
63536;SDS011;49686;51.880;5.632;2024-03-25T07:08:13;26.88;;;8.85;;
63536;SDS011;49686;51.880;5.632;2024-03-25T07:10:42;28.67;;;9.85;;
63536;SDS011;49686;51.880;5.632;2024-03-25T07:13:09;28.23;;;8.75;;
63536;SDS011;49686;51.880;5.632;2024-03-25T07:15:34;21.33;;;7.07;;
63536;SDS011;49686;51.880;5.632;2024-03-25T07:18:00;19.50;;;5.07;;
63536;SDS011;49686;51.880;5.632;2024-03-25T07:20:27;13.57;;;4.95;;
63536;SDS011;49686;51.880;5.632;2024-03-25T07:22:53;15.02;;;5.53;;
63536;SDS011;49686;51.880;5.632;2024-03-25T07:25:19;14.45;;;5.28;;
63536;SDS011;49686;51.880;5.632;2024-03-25T07:27:45;19.05;;;5.78;;
63536;SDS011;49686;51.880;5.632;2024-03-25T07:30:11;20.67;;;5.80;;
63536;SDS011;49686;51.880;5.632;2024-03-25T07:32:37;18.20;;;5.68;;
63536;SDS011;49686;51.880;5.632;2024-03-25T07:35:03;18.92;;;5.78;;
63536;SDS011;49686;51.880;5.632;2024-03-25T07:37:30;18.73;;;6.30;;
63536;SDS011;49686;51.880;5.632;2024-03-25T07:39:56;18.88;;;6.53;;
63536;SDS011;49686;51.880;5.632;2024-03-25T07:42:22;20.75;;;6.97;;
63536;SDS011;49686;51.880;5.632;2024-03-25T07:44:48;17.40;;;7.55;;
63536;SDS011;49686;51.880;5.632;2024-03-25T07:47:14;15.13;;;7.07;;
63536;SDS011;49686;51.880;5.632;2024-03-25T07:49:40;12.68;;;5.97;;
63536;SDS011;49686;51.880;5.632;2024-03-25T07:52:06;15.00;;;7.07;;
63536;SDS011;49686;51.880;5.632;2024-03-25T07:54:32;15.70;;;7.45;;
63536;SDS011;49686;51.880;5.632;2024-03-25T07:56:58;20.02;;;7.50;;
63536;SDS011;49686;51.880;5.632;2024-03-25T07:59:24;15.60;;;8.15;;
63536;SDS011;49686;51.880;5.632;2024-03-25T08:01:50;16.50;;;7.45;;
63536;SDS011;49686;51.880;5.632;2024-03-25T08:04:16;17.02;;;7.90;;
63536;SDS011;49686;51.880;5.632;2024-03-25T08:06:42;15.75;;;7.75;;
63536;SDS011;49686;51.880;5.632;2024-03-25T08:09:08;18.60;;;7.63;;
63536;SDS011;49686;51.880;5.632;2024-03-25T08:11:34;17.33;;;8.35;;
63536;SDS011;49686;51.880;5.632;2024-03-25T08:14:01;16.35;;;7.85;;
63536;SDS011;49686;51.880;5.632;2024-03-25T08:16:27;20.45;;;8.30;;
63536;SDS011;49686;51.880;5.632;2024-03-25T08:18:53;18.35;;;8.55;;
63536;SDS011;49686;51.880;5.632;2024-03-25T08:21:18;13.52;;;7.57;;
63536;SDS011;49686;51.880;5.632;2024-03-25T08:23:44;24.55;;;10.07;;
63536;SDS011;49686;51.880;5.632;2024-03-25T08:26:11;29.42;;;9.98;;
63536;SDS011;49686;51.880;5.632;2024-03-25T08:28:37;20.17;;;7.60;;
63536;SDS011;49686;51.880;5.632;2024-03-25T08:31:03;18.85;;;8.57;;
63536;SDS011;49686;51.880;5.632;2024-03-25T08:33:29;18.13;;;7.97;;
63536;SDS011;49686;51.880;5.632;2024-03-25T08:35:55;20.98;;;7.72;;
63536;SDS011;49686;51.880;5.632;2024-03-25T08:38:21;17.95;;;8.20;;
63536;SDS011;49686;51.880;5.632;2024-03-25T08:40:47;14.82;;;6.97;;
63536;SDS011;49686;51.880;5.632;2024-03-25T08:43:13;19.92;;;8.00;;
63536;SDS011;49686;51.880;5.632;2024-03-25T08:45:39;16.55;;;7.22;;
63536;SDS011;49686;51.880;5.632;2024-03-25T08:48:06;20.50;;;8.60;;
63536;SDS011;49686;51.880;5.632;2024-03-25T08:50:32;16.95;;;7.90;;
63536;SDS011;49686;51.880;5.632;2024-03-25T08:52:58;19.73;;;7.88;;
63536;SDS011;49686;51.880;5.632;2024-03-25T08:55:24;20.02;;;6.95;;
63536;SDS011;49686;51.880;5.632;2024-03-25T08:57:50;16.55;;;7.75;;
63536;SDS011;49686;51.880;5.632;2024-03-25T09:00:16;20.70;;;8.18;;
63536;SDS011;49686;51.880;5.632;2024-03-25T09:02:42;11.80;;;5.72;;
63536;SDS011;49686;51.880;5.632;2024-03-25T09:05:08;16.27;;;6.03;;
63536;SDS011;49686;51.880;5.632;2024-03-25T09:07:34;19.58;;;7.20;;
63536;SDS011;49686;51.880;5.632;2024-03-25T09:10:00;17.95;;;5.65;;
63536;SDS011;49686;51.880;5.632;2024-03-25T09:12:44;16.98;;;6.70;;
63536;SDS011;49686;51.880;5.632;2024-03-25T09:15:10;15.63;;;6.80;;
63536;SDS011;49686;51.880;5.632;2024-03-25T09:17:36;12.52;;;6.13;;
63536;SDS011;49686;51.880;5.632;2024-03-25T09:20:02;12.88;;;5.68;;
63536;SDS011;49686;51.880;5.632;2024-03-25T09:22:29;15.93;;;5.47;;
63536;SDS011;49686;51.880;5.632;2024-03-25T09:24:55;17.80;;;5.05;;
63536;SDS011;49686;51.880;5.632;2024-03-25T09:27:21;14.82;;;5.78;;
63536;SDS011;49686;51.880;5.632;2024-03-25T09:29:47;15.38;;;4.78;;
63536;SDS011;49686;51.880;5.632;2024-03-25T09:32:13;10.13;;;3.53;;
63536;SDS011;49686;51.880;5.632;2024-03-25T09:34:38;13.88;;;3.78;;
63536;SDS011;49686;51.880;5.632;2024-03-25T09:37:04;20.80;;;4.60;;
63536;SDS011;49686;51.880;5.632;2024-03-25T09:39:30;10.95;;;4.22;;
63536;SDS011;49686;51.880;5.632;2024-03-25T09:41:56;11.48;;;3.80;;
63536;SDS011;49686;51.880;5.632;2024-03-25T09:44:27;8.18;;;2.92;;
63536;SDS011;49686;51.880;5.632;2024-03-25T09:49:21;13.80;;;4.03;;
63536;SDS011;49686;51.880;5.632;2024-03-25T09:51:49;12.15;;;3.67;;
63536;SDS011;49686;51.880;5.632;2024-03-25T09:54:15;11.38;;;4.45;;
63536;SDS011;49686;51.880;5.632;2024-03-25T09:56:41;13.13;;;4.47;;
63536;SDS011;49686;51.880;5.632;2024-03-25T09:59:07;13.65;;;4.25;;
63536;SDS011;49686;51.880;5.632;2024-03-25T10:01:33;11.77;;;4.05;;
63536;SDS011;49686;51.880;5.632;2024-03-25T10:04:00;21.92;;;5.65;;
63536;SDS011;49686;51.880;5.632;2024-03-25T10:06:26;9.52;;;4.10;;
63536;SDS011;49686;51.880;5.632;2024-03-25T10:08:55;12.85;;;4.70;;
63536;SDS011;49686;51.880;5.632;2024-03-25T10:11:22;13.38;;;5.20;;
63536;SDS011;49686;51.880;5.632;2024-03-25T10:13:48;10.88;;;5.13;;
63536;SDS011;49686;51.880;5.632;2024-03-25T10:16:14;12.25;;;4.70;;
63536;SDS011;49686;51.880;5.632;2024-03-25T10:18:40;11.30;;;5.43;;
63536;SDS011;49686;51.880;5.632;2024-03-25T10:21:10;13.13;;;4.75;;
63536;SDS011;49686;51.880;5.632;2024-03-25T10:23:36;9.48;;;4.78;;
63536;SDS011;49686;51.880;5.632;2024-03-25T10:26:05;10.93;;;4.78;;
63536;SDS011;49686;51.880;5.632;2024-03-25T10:28:31;10.73;;;4.35;;
63536;SDS011;49686;51.880;5.632;2024-03-25T10:31:02;11.18;;;4.40;;
63536;SDS011;49686;51.880;5.632;2024-03-25T10:33:29;9.65;;;4.70;;
63536;SDS011;49686;51.880;5.632;2024-03-25T10:35:55;10.80;;;4.20;;
63536;SDS011;49686;51.880;5.632;2024-03-25T10:38:23;9.95;;;4.75;;
63536;SDS011;49686;51.880;5.632;2024-03-25T10:40:50;9.43;;;4.38;;
63536;SDS011;49686;51.880;5.632;2024-03-25T10:43:19;12.00;;;4.55;;
63536;SDS011;49686;51.880;5.632;2024-03-25T10:45:47;9.77;;;4.30;;
63536;SDS011;49686;51.880;5.632;2024-03-25T10:51:02;11.95;;;5.13;;
63536;SDS011;49686;51.880;5.632;2024-03-25T10:53:30;7.78;;;3.80;;
63536;SDS011;49686;51.880;5.632;2024-03-25T10:56:00;12.40;;;4.20;;
63536;SDS011;49686;51.880;5.632;2024-03-25T10:58:27;8.35;;;4.00;;
63536;SDS011;49686;51.880;5.632;2024-03-25T11:00:54;9.68;;;4.45;;
63536;SDS011;49686;51.880;5.632;2024-03-25T11:03:21;10.40;;;4.53;;
63536;SDS011;49686;51.880;5.632;2024-03-25T11:05:48;7.03;;;3.50;;
63536;SDS011;49686;51.880;5.632;2024-03-25T11:08:14;12.02;;;4.95;;
63536;SDS011;49686;51.880;5.632;2024-03-25T11:10:41;7.47;;;3.65;;
63536;SDS011;49686;51.880;5.632;2024-03-25T11:13:27;8.45;;;4.05;;
63536;SDS011;49686;51.880;5.632;2024-03-25T11:15:53;8.45;;;4.20;;
63536;SDS011;49686;51.880;5.632;2024-03-25T11:18:22;9.27;;;3.80;;
63536;SDS011;49686;51.880;5.632;2024-03-25T11:20:59;9.27;;;3.80;;
63536;SDS011;49686;51.880;5.632;2024-03-25T11:23:43;6.70;;;3.53;;
63536;SDS011;49686;51.880;5.632;2024-03-25T11:26:16;8.75;;;4.10;;
63536;SDS011;49686;51.880;5.632;2024-03-25T11:28:44;9.65;;;3.17;;
63536;SDS011;49686;51.880;5.632;2024-03-25T11:31:11;6.13;;;3.33;;
63536;SDS011;49686;51.880;5.632;2024-03-25T11:33:40;6.88;;;3.38;;
63536;SDS011;49686;51.880;5.632;2024-03-25T11:36:06;4.80;;;2.72;;
63536;SDS011;49686;51.880;5.632;2024-03-25T11:38:33;6.03;;;2.85;;
63536;SDS011;49686;51.880;5.632;2024-03-25T11:40:59;5.18;;;3.10;;
63536;SDS011;49686;51.880;5.632;2024-03-25T11:43:26;8.30;;;3.70;;
63536;SDS011;49686;51.880;5.632;2024-03-25T11:45:52;6.00;;;3.50;;
63536;SDS011;49686;51.880;5.632;2024-03-25T11:48:18;7.32;;;3.40;;
63536;SDS011;49686;51.880;5.632;2024-03-25T11:50:45;9.73;;;3.88;;
63536;SDS011;49686;51.880;5.632;2024-03-25T11:53:15;9.05;;;4.00;;
63536;SDS011;49686;51.880;5.632;2024-03-25T11:55:45;6.50;;;3.90;;
63536;SDS011;49686;51.880;5.632;2024-03-25T11:58:12;7.30;;;4.03;;
63536;SDS011;49686;51.880;5.632;2024-03-25T12:00:44;12.55;;;4.60;;
63536;SDS011;49686;51.880;5.632;2024-03-25T12:03:14;10.40;;;4.63;;
63536;SDS011;49686;51.880;5.632;2024-03-25T12:05:42;8.02;;;3.95;;
63536;SDS011;49686;51.880;5.632;2024-03-25T12:08:08;8.15;;;4.18;;
63536;SDS011;49686;51.880;5.632;2024-03-25T12:10:35;8.52;;;4.18;;
63536;SDS011;49686;51.880;5.632;2024-03-25T12:13:20;7.03;;;3.90;;
63536;SDS011;49686;51.880;5.632;2024-03-25T12:15:47;8.45;;;4.13;;
63536;SDS011;49686;51.880;5.632;2024-03-25T12:18:13;8.75;;;4.15;;
63536;SDS011;49686;51.880;5.632;2024-03-25T12:20:40;9.90;;;4.15;;
63536;SDS011;49686;51.880;5.632;2024-03-25T12:23:07;8.57;;;4.53;;
63536;SDS011;49686;51.880;5.632;2024-03-25T12:25:33;9.63;;;4.03;;
63536;SDS011;49686;51.880;5.632;2024-03-25T12:27:59;7.78;;;3.88;;
63536;SDS011;49686;51.880;5.632;2024-03-25T12:30:25;8.10;;;3.53;;
63536;SDS011;49686;51.880;5.632;2024-03-25T12:32:51;6.93;;;3.47;;
63536;SDS011;49686;51.880;5.632;2024-03-25T12:35:17;8.13;;;3.60;;
63536;SDS011;49686;51.880;5.632;2024-03-25T12:37:44;7.63;;;3.47;;
63536;SDS011;49686;51.880;5.632;2024-03-25T12:40:25;7.18;;;2.92;;
63536;SDS011;49686;51.880;5.632;2024-03-25T12:42:52;5.68;;;3.08;;
63536;SDS011;49686;51.880;5.632;2024-03-25T12:45:22;5.53;;;2.90;;
63536;SDS011;49686;51.880;5.632;2024-03-25T12:47:49;6.85;;;3.45;;
63536;SDS011;49686;51.880;5.632;2024-03-25T12:50:17;6.85;;;3.40;;
63536;SDS011;49686;51.880;5.632;2024-03-25T12:52:44;7.75;;;4.13;;
63536;SDS011;49686;51.880;5.632;2024-03-25T12:55:10;6.72;;;2.97;;
63536;SDS011;49686;51.880;5.632;2024-03-25T12:57:36;9.38;;;3.38;;
63536;SDS011;49686;51.880;5.632;2024-03-25T13:00:02;7.72;;;3.40;;
63536;SDS011;49686;51.880;5.632;2024-03-25T13:02:29;5.53;;;3.60;;
63536;SDS011;49686;51.880;5.632;2024-03-25T13:04:54;8.13;;;3.22;;
63536;SDS011;49686;51.880;5.632;2024-03-25T13:07:20;7.10;;;3.30;;
63536;SDS011;49686;51.880;5.632;2024-03-25T13:09:46;6.78;;;3.45;;
63536;SDS011;49686;51.880;5.632;2024-03-25T13:12:12;7.15;;;3.75;;
63536;SDS011;49686;51.880;5.632;2024-03-25T13:14:38;6.78;;;3.05;;
63536;SDS011;49686;51.880;5.632;2024-03-25T13:17:04;6.68;;;2.88;;
63536;SDS011;49686;51.880;5.632;2024-03-25T13:19:31;7.40;;;3.10;;
63536;SDS011;49686;51.880;5.632;2024-03-25T13:21:56;7.10;;;2.90;;
63536;SDS011;49686;51.880;5.632;2024-03-25T13:24:23;6.32;;;3.10;;
63536;SDS011;49686;51.880;5.632;2024-03-25T13:26:49;6.88;;;2.78;;
63536;SDS011;49686;51.880;5.632;2024-03-25T13:29:14;6.28;;;3.20;;
63536;SDS011;49686;51.880;5.632;2024-03-25T13:31:40;6.63;;;2.97;;
63536;SDS011;49686;51.880;5.632;2024-03-25T13:34:06;6.97;;;3.17;;
63536;SDS011;49686;51.880;5.632;2024-03-25T13:36:32;6.60;;;3.33;;
63536;SDS011;49686;51.880;5.632;2024-03-25T13:38:58;7.07;;;3.45;;
63536;SDS011;49686;51.880;5.632;2024-03-25T13:41:24;5.38;;;3.03;;
63536;SDS011;49686;51.880;5.632;2024-03-25T13:43:50;5.45;;;2.80;;
63536;SDS011;49686;51.880;5.632;2024-03-25T13:46:16;5.97;;;3.00;;
63536;SDS011;49686;51.880;5.632;2024-03-25T13:48:42;5.43;;;3.20;;
63536;SDS011;49686;51.880;5.632;2024-03-25T13:51:08;5.53;;;3.20;;
63536;SDS011;49686;51.880;5.632;2024-03-25T13:53:34;5.65;;;3.40;;
63536;SDS011;49686;51.880;5.632;2024-03-25T13:56:00;9.60;;;3.20;;
63536;SDS011;49686;51.880;5.632;2024-03-25T13:58:26;4.97;;;2.88;;
63536;SDS011;49686;51.880;5.632;2024-03-25T14:00:52;6.63;;;3.00;;
63536;SDS011;49686;51.880;5.632;2024-03-25T14:03:18;5.15;;;2.75;;
63536;SDS011;49686;51.880;5.632;2024-03-25T14:05:44;6.15;;;3.00;;
63536;SDS011;49686;51.880;5.632;2024-03-25T14:08:10;6.82;;;3.28;;
63536;SDS011;49686;51.880;5.632;2024-03-25T14:10:36;7.80;;;3.42;;
63536;SDS011;49686;51.880;5.632;2024-03-25T14:13:02;7.63;;;2.75;;
63536;SDS011;49686;51.880;5.632;2024-03-25T14:15:28;6.50;;;2.80;;
63536;SDS011;49686;51.880;5.632;2024-03-25T14:17:55;6.68;;;3.15;;
63536;SDS011;49686;51.880;5.632;2024-03-25T14:20:20;6.75;;;3.40;;
63536;SDS011;49686;51.880;5.632;2024-03-25T14:22:46;6.97;;;2.90;;
63536;SDS011;49686;51.880;5.632;2024-03-25T14:25:12;6.80;;;3.17;;
63536;SDS011;49686;51.880;5.632;2024-03-25T14:27:38;5.90;;;3.17;;
63536;SDS011;49686;51.880;5.632;2024-03-25T14:30:04;6.47;;;3.00;;
63536;SDS011;49686;51.880;5.632;2024-03-25T14:32:31;6.63;;;2.45;;
63536;SDS011;49686;51.880;5.632;2024-03-25T14:34:57;5.15;;;2.88;;
63536;SDS011;49686;51.880;5.632;2024-03-25T14:37:23;6.80;;;3.20;;
63536;SDS011;49686;51.880;5.632;2024-03-25T14:39:49;6.75;;;3.00;;
63536;SDS011;49686;51.880;5.632;2024-03-25T14:42:15;6.47;;;3.03;;
63536;SDS011;49686;51.880;5.632;2024-03-25T14:44:41;7.15;;;3.95;;
63536;SDS011;49686;51.880;5.632;2024-03-25T14:47:07;4.55;;;2.50;;